createdAt,value
2016-07-24T00:00:43.086Z,0
2016-07-24T00:01:43.141Z,0
2016-07-24T00:02:43.119Z,0
2016-07-24T00:03:43.116Z,0
2016-07-24T00:04:43.126Z,0
2016-07-24T00:05:43.154Z,0
2016-07-24T00:06:43.174Z,0
2016-07-24T00:07:43.162Z,0
2016-07-24T00:08:43.173Z,0
2016-07-24T00:09:43.171Z,0
2016-07-24T00:10:43.180Z,0
2016-07-24T00:11:43.205Z,0
2016-07-24T00:12:43.179Z,0
2016-07-24T00:13:43.218Z,0
2016-07-24T00:14:43.216Z,0
2016-07-24T00:15:43.190Z,0
2016-07-24T00:16:43.228Z,0
2016-07-24T00:17:43.239Z,0
2016-07-24T00:18:43.273Z,0
2016-07-24T00:19:43.268Z,0
2016-07-24T00:20:43.283Z,0
2016-07-24T00:21:43.275Z,0
2016-07-24T00:22:43.281Z,0
2016-07-24T00:23:43.291Z,0
2016-07-24T00:24:43.298Z,0
2016-07-24T00:25:43.307Z,0
2016-07-24T00:26:43.331Z,0
2016-07-24T00:27:43.335Z,0
2016-07-24T00:28:43.331Z,0
2016-07-24T00:29:43.334Z,0
2016-07-24T00:30:43.348Z,0
2016-07-24T00:31:43.351Z,0
2016-07-24T00:32:43.374Z,0
2016-07-24T00:33:43.391Z,0
2016-07-24T00:34:44.074Z,0
2016-07-24T00:35:43.417Z,0
2016-07-24T00:36:43.394Z,0
2016-07-24T00:37:43.405Z,0
2016-07-24T00:38:43.449Z,0
2016-07-24T00:39:43.442Z,0
2016-07-24T00:40:43.424Z,0
2016-07-24T00:41:43.438Z,0
2016-07-24T00:42:43.460Z,0
2016-07-24T00:43:43.485Z,0
2016-07-24T00:44:43.469Z,0
2016-07-24T00:45:43.490Z,0
2016-07-24T00:46:43.492Z,0
2016-07-24T00:47:43.519Z,0
2016-07-24T00:48:43.502Z,0
2016-07-24T00:49:43.531Z,0
2016-07-24T00:50:43.538Z,0
2016-07-24T00:51:43.558Z,0
2016-07-24T00:52:43.530Z,0
2016-07-24T00:53:43.564Z,0
2016-07-24T00:54:43.540Z,0
2016-07-24T00:55:43.584Z,0
2016-07-24T00:56:43.592Z,0
2016-07-24T00:57:43.594Z,0
2016-07-24T00:58:43.591Z,0
2016-07-24T00:59:43.619Z,0
2016-07-24T01:00:43.612Z,0
2016-07-24T01:01:43.611Z,0
2016-07-24T01:02:43.609Z,0
2016-07-24T01:03:43.647Z,0
2016-07-24T01:04:43.676Z,0
2016-07-24T01:05:43.651Z,0
2016-07-24T01:06:43.668Z,0
2016-07-24T01:07:43.666Z,0
2016-07-24T01:08:43.680Z,0
2016-07-24T01:09:43.693Z,0
2016-07-24T01:10:43.701Z,0
2016-07-24T01:11:43.702Z,0
2016-07-24T01:12:43.724Z,0
2016-07-24T01:13:43.715Z,0
2016-07-24T01:14:43.704Z,0
2016-07-24T01:15:43.739Z,0
2016-07-24T01:16:43.734Z,0
2016-07-24T01:17:43.751Z,0
2016-07-24T01:18:43.783Z,0
2016-07-24T01:19:43.777Z,0
2016-07-24T01:20:43.786Z,0
2016-07-24T01:21:43.797Z,0
2016-07-24T01:22:43.797Z,0
2016-07-24T01:23:43.813Z,0
2016-07-24T01:24:43.800Z,0
2016-07-24T01:25:43.817Z,0
2016-07-24T01:26:43.832Z,0
2016-07-24T01:27:43.873Z,0
2016-07-24T01:28:43.832Z,0
2016-07-24T01:29:43.860Z,0
2016-07-24T01:30:43.869Z,0
2016-07-24T01:31:43.876Z,0
2016-07-24T01:32:43.884Z,0
2016-07-24T01:33:43.908Z,0
2016-07-24T01:34:43.894Z,0
2016-07-24T01:35:43.908Z,0
2016-07-24T01:36:43.935Z,0
2016-07-24T01:37:43.912Z,0
2016-07-24T01:38:43.941Z,0
2016-07-24T01:39:43.955Z,0
2016-07-24T01:40:43.954Z,0
2016-07-24T01:41:44.650Z,0
2016-07-24T01:42:43.952Z,0
2016-07-24T01:43:43.982Z,0
2016-07-24T01:44:44.006Z,0
2016-07-24T01:45:44.001Z,0
2016-07-24T01:46:44.019Z,0
2016-07-24T01:47:44.024Z,0
2016-07-24T01:48:44.013Z,0
2016-07-24T01:49:44.045Z,0
2016-07-24T01:50:44.031Z,0
2016-07-24T01:51:44.067Z,0
2016-07-24T01:52:44.046Z,0
2016-07-24T01:53:44.062Z,0
2016-07-24T01:54:44.061Z,0
2016-07-24T01:55:44.081Z,0
2016-07-24T01:56:44.070Z,0
2016-07-24T01:57:44.109Z,0
2016-07-24T01:58:44.099Z,0
2016-07-24T01:59:44.123Z,0
2016-07-24T02:00:44.096Z,0
2016-07-24T02:01:44.162Z,0
2016-07-24T02:02:44.140Z,0
2016-07-24T02:03:44.148Z,0
2016-07-24T02:04:44.141Z,0
2016-07-24T02:05:44.183Z,0
2016-07-24T02:06:44.880Z,0
2016-07-24T02:07:44.212Z,0
2016-07-24T02:08:44.204Z,0
2016-07-24T02:09:44.191Z,0
2016-07-24T02:10:44.219Z,0
2016-07-24T02:11:44.232Z,0
2016-07-24T02:12:44.221Z,0
2016-07-24T02:13:44.250Z,0
2016-07-24T02:14:44.248Z,0
2016-07-24T02:15:44.264Z,0
2016-07-24T02:16:44.294Z,0
2016-07-24T02:17:44.298Z,0
2016-07-24T02:18:44.329Z,0
2016-07-24T02:19:44.315Z,0
2016-07-24T02:20:44.323Z,0
2016-07-24T02:21:44.308Z,0
2016-07-24T02:22:44.311Z,0
2016-07-24T02:23:44.313Z,0
2016-07-24T02:24:44.344Z,0
2016-07-24T02:25:44.337Z,0
2016-07-24T02:26:44.371Z,0
2016-07-24T02:27:44.346Z,0
2016-07-24T02:28:44.355Z,0
2016-07-24T02:29:44.372Z,0
2016-07-24T02:30:44.393Z,0
2016-07-24T02:31:44.387Z,0
2016-07-24T02:32:44.412Z,0
2016-07-24T02:33:44.392Z,0
2016-07-24T02:34:44.406Z,0
2016-07-24T02:35:44.404Z,0
2016-07-24T02:36:44.443Z,0
2016-07-24T02:37:44.457Z,0
2016-07-24T02:38:44.439Z,0
2016-07-24T02:39:44.469Z,0
2016-07-24T02:40:44.481Z,0
2016-07-24T02:41:44.487Z,0
2016-07-24T02:42:44.503Z,0
2016-07-24T02:43:44.488Z,0
2016-07-24T02:44:44.493Z,0
2016-07-24T02:45:44.515Z,0
2016-07-24T02:46:44.555Z,0
2016-07-24T02:47:44.524Z,0
2016-07-24T02:48:44.556Z,0
2016-07-24T02:49:44.562Z,0
2016-07-24T02:50:44.570Z,0
2016-07-24T02:51:44.572Z,0
2016-07-24T02:52:44.563Z,0
2016-07-24T02:53:44.572Z,0
2016-07-24T02:54:44.584Z,0
2016-07-24T02:55:44.604Z,0
2016-07-24T02:56:44.596Z,0
2016-07-24T02:57:44.616Z,0
2016-07-24T02:58:44.625Z,0
2016-07-24T02:59:44.623Z,0
2016-07-24T03:00:44.625Z,0
2016-07-24T03:01:44.643Z,0
2016-07-24T03:02:44.679Z,0
2016-07-24T03:03:44.671Z,0
2016-07-24T03:04:44.704Z,0
2016-07-24T03:05:44.724Z,0
2016-07-24T03:06:44.699Z,0
2016-07-24T03:07:44.708Z,0
2016-07-24T03:08:44.706Z,0
2016-07-24T03:09:44.721Z,0
2016-07-24T03:10:44.730Z,0
2016-07-24T03:11:44.724Z,0
2016-07-24T03:12:44.736Z,0
2016-07-24T03:13:44.760Z,0
2016-07-24T03:14:44.734Z,0
2016-07-24T03:15:44.767Z,0
2016-07-24T03:16:44.774Z,0
2016-07-24T03:17:44.817Z,0
2016-07-24T03:18:44.778Z,0
2016-07-24T03:19:44.776Z,0
2016-07-24T03:20:44.796Z,0
2016-07-24T03:21:44.828Z,0
2016-07-24T03:22:44.852Z,0
2016-07-24T03:23:44.820Z,0
2016-07-24T03:24:45.054Z,0
2016-07-24T03:25:44.859Z,0
2016-07-24T03:26:44.848Z,0
2016-07-24T03:27:44.882Z,0
2016-07-24T03:28:44.895Z,0
2016-07-24T03:29:44.875Z,0
2016-07-24T03:30:44.893Z,0
2016-07-24T03:31:44.901Z,0
2016-07-24T03:32:44.942Z,0
2016-07-24T03:33:44.909Z,0
2016-07-24T03:34:44.925Z,0
2016-07-24T03:35:44.952Z,0
2016-07-24T03:36:44.951Z,0
2016-07-24T03:37:44.956Z,0
2016-07-24T03:38:44.955Z,0
2016-07-24T03:39:44.959Z,0
2016-07-24T03:40:45.003Z,0
2016-07-24T03:41:44.987Z,0
2016-07-24T03:42:44.967Z,0
2016-07-24T03:43:45.012Z,0
2016-07-24T03:44:45.009Z,0
2016-07-24T03:45:45.039Z,0
2016-07-24T03:46:45.056Z,0
2016-07-24T03:47:45.047Z,0
2016-07-24T03:48:45.030Z,0
2016-07-24T03:49:45.035Z,0
2016-07-24T03:50:45.066Z,0
2016-07-24T03:51:45.084Z,0
2016-07-24T03:52:45.083Z,0
2016-07-24T03:53:45.104Z,0
2016-07-24T03:54:45.090Z,0
2016-07-24T03:55:45.117Z,0
2016-07-24T03:56:45.117Z,0
2016-07-24T03:57:45.109Z,0
2016-07-24T03:58:45.131Z,0
2016-07-24T03:59:45.152Z,0
2016-07-24T04:00:45.175Z,0
2016-07-24T04:01:45.157Z,0
2016-07-24T04:02:45.173Z,0
2016-07-24T04:03:45.159Z,0
2016-07-24T04:04:45.175Z,0
2016-07-24T04:05:45.164Z,0
2016-07-24T04:06:45.212Z,0
2016-07-24T04:07:45.229Z,0
2016-07-24T04:08:45.220Z,0
2016-07-24T04:09:45.221Z,0
2016-07-24T04:10:45.246Z,0
2016-07-24T04:11:45.228Z,0
2016-07-24T04:12:45.230Z,0
2016-07-24T04:13:45.943Z,0
2016-07-24T04:14:45.267Z,0
2016-07-24T04:15:45.264Z,0
2016-07-24T04:16:45.290Z,0
2016-07-24T04:17:45.307Z,0
2016-07-24T04:18:45.293Z,0
2016-07-24T04:19:45.305Z,0
2016-07-24T04:20:45.316Z,4
2016-07-24T04:21:45.328Z,0
2016-07-24T04:22:45.340Z,0
2016-07-24T04:23:45.349Z,4
2016-07-24T04:24:45.345Z,4
2016-07-24T04:25:45.369Z,4
2016-07-24T04:26:45.390Z,4
2016-07-24T04:27:45.377Z,0
2016-07-24T04:28:45.377Z,4
2016-07-24T04:29:45.380Z,4
2016-07-24T04:30:45.404Z,8
2016-07-24T04:31:45.422Z,4
2016-07-24T04:32:45.431Z,4
2016-07-24T04:33:45.411Z,8
2016-07-24T04:34:45.438Z,4
2016-07-24T04:35:45.458Z,8
2016-07-24T04:36:45.462Z,4
2016-07-24T04:37:45.481Z,4
2016-07-24T04:38:45.477Z,4
2016-07-24T04:39:45.498Z,4
2016-07-24T04:40:46.198Z,4
2016-07-24T04:41:45.497Z,4
2016-07-24T04:42:45.500Z,8
2016-07-24T04:43:45.499Z,8
2016-07-24T04:44:45.524Z,8
2016-07-24T04:45:45.530Z,4
2016-07-24T04:46:45.543Z,4
2016-07-24T04:47:45.560Z,4
2016-07-24T04:48:45.533Z,8
2016-07-24T04:49:45.566Z,8
2016-07-24T04:50:45.564Z,8
2016-07-24T04:51:45.599Z,4
2016-07-24T04:52:45.599Z,4
2016-07-24T04:53:45.604Z,8
2016-07-24T04:54:45.591Z,4
2016-07-24T04:55:45.631Z,8
2016-07-24T04:56:45.632Z,8
2016-07-24T04:57:45.649Z,8
2016-07-24T04:58:45.656Z,4
2016-07-24T04:59:45.648Z,4
2016-07-24T05:00:45.674Z,4
2016-07-24T05:01:45.654Z,4
2016-07-24T05:02:45.645Z,4
2016-07-24T05:03:45.679Z,4
2016-07-24T05:04:45.686Z,4
2016-07-24T05:05:45.694Z,4
2016-07-24T05:06:45.681Z,8
2016-07-24T05:07:45.717Z,4
2016-07-24T05:08:45.715Z,4
2016-07-24T05:09:45.719Z,8
2016-07-24T05:10:45.744Z,8
2016-07-24T05:11:45.759Z,4
2016-07-24T05:12:45.764Z,8
2016-07-24T05:13:45.758Z,4
2016-07-24T05:14:45.791Z,8
2016-07-24T05:15:45.807Z,8
2016-07-24T05:16:45.788Z,8
2016-07-24T05:17:45.774Z,12
2016-07-24T05:18:45.832Z,8
2016-07-24T05:19:45.826Z,8
2016-07-24T05:20:45.808Z,12
2016-07-24T05:21:45.834Z,12
2016-07-24T05:22:45.843Z,8
2016-07-24T05:23:45.857Z,8
2016-07-24T05:24:45.926Z,8
2016-07-24T05:25:45.856Z,8
2016-07-24T05:26:45.874Z,4
2016-07-24T05:27:45.899Z,8
2016-07-24T05:28:45.917Z,4
2016-07-24T05:29:45.909Z,8
2016-07-24T05:30:45.885Z,8
2016-07-24T05:31:45.928Z,8
2016-07-24T05:32:45.900Z,8
2016-07-24T05:33:45.947Z,4
2016-07-24T05:34:45.921Z,4
2016-07-24T05:35:45.960Z,4
2016-07-24T05:36:45.957Z,8
2016-07-24T05:37:45.967Z,8
2016-07-24T05:38:45.984Z,8
2016-07-24T05:39:45.991Z,8
2016-07-24T05:40:45.982Z,8
2016-07-24T05:41:45.988Z,8
2016-07-24T05:42:46.013Z,8
2016-07-24T05:43:46.732Z,8
2016-07-24T05:44:46.033Z,8
2016-07-24T05:45:46.042Z,8
2016-07-24T05:46:46.042Z,8
2016-07-24T05:47:46.073Z,8
2016-07-24T05:48:46.069Z,8
2016-07-24T05:49:46.087Z,8
2016-07-24T05:50:46.093Z,8
2016-07-24T05:51:46.079Z,8
2016-07-24T05:52:46.079Z,8
2016-07-24T05:53:46.120Z,12
2016-07-24T05:54:46.136Z,8
2016-07-24T05:55:46.133Z,8
2016-07-24T05:56:46.140Z,12
2016-07-24T05:57:46.143Z,8
2016-07-24T05:58:46.166Z,8
2016-07-24T05:59:46.165Z,8
2016-07-24T06:00:46.169Z,8
2016-07-24T06:01:46.193Z,8
2016-07-24T06:02:46.200Z,8
2016-07-24T06:03:46.174Z,8
2016-07-24T06:04:46.193Z,8
2016-07-24T06:05:46.212Z,8
2016-07-24T06:06:46.224Z,8
2016-07-24T06:07:46.235Z,8
2016-07-24T06:08:46.231Z,8
2016-07-24T06:09:46.235Z,8
2016-07-24T06:10:46.238Z,8
2016-07-24T06:11:46.269Z,8
2016-07-24T06:12:46.256Z,12
2016-07-24T06:13:46.273Z,8
2016-07-24T06:14:46.287Z,12
2016-07-24T06:15:46.320Z,12
2016-07-24T06:16:46.289Z,12
2016-07-24T06:17:46.326Z,12
2016-07-24T06:18:46.319Z,12
2016-07-24T06:19:46.323Z,12
2016-07-24T06:20:46.328Z,12
2016-07-24T06:21:46.342Z,12
2016-07-24T06:22:46.372Z,12
2016-07-24T06:23:46.377Z,12
2016-07-24T06:24:46.600Z,12
2016-07-24T06:25:46.380Z,12
2016-07-24T06:26:46.389Z,12
2016-07-24T06:27:46.410Z,8
2016-07-24T06:28:46.399Z,8
2016-07-24T06:29:46.419Z,12
2016-07-24T06:30:46.414Z,12
2016-07-24T06:31:46.444Z,12
2016-07-24T06:32:46.454Z,12
2016-07-24T06:33:46.470Z,12
2016-07-24T06:34:46.468Z,12
2016-07-24T06:35:46.481Z,12
2016-07-24T06:36:46.481Z,12
2016-07-24T06:37:46.494Z,12
2016-07-24T06:38:46.473Z,12
2016-07-24T06:39:46.505Z,12
2016-07-24T06:40:46.522Z,12
2016-07-24T06:41:46.515Z,12
2016-07-24T06:42:46.514Z,8
2016-07-24T06:43:46.543Z,8
2016-07-24T06:44:46.553Z,12
2016-07-24T06:45:46.564Z,8
2016-07-24T06:46:46.574Z,8
2016-07-24T06:47:46.559Z,12
2016-07-24T06:48:46.562Z,12
2016-07-24T06:49:46.615Z,12
2016-07-24T06:50:46.595Z,8
2016-07-24T06:51:46.616Z,8
2016-07-24T06:52:47.280Z,8
2016-07-24T06:53:46.651Z,8
2016-07-24T06:54:46.631Z,12
2016-07-24T06:55:46.642Z,12
2016-07-24T06:56:46.677Z,12
2016-07-24T06:57:46.656Z,12
2016-07-24T06:58:46.706Z,12
2016-07-24T06:59:48.149Z,12
2016-07-24T07:00:46.672Z,12
2016-07-24T07:01:46.691Z,8
2016-07-24T07:02:46.717Z,8
2016-07-24T07:03:46.713Z,8
2016-07-24T07:04:46.717Z,12
2016-07-24T07:05:46.742Z,12
2016-07-24T07:06:46.733Z,12
2016-07-24T07:07:46.742Z,12
2016-07-24T07:08:46.752Z,12
2016-07-24T07:09:46.766Z,12
2016-07-24T07:10:46.746Z,12
2016-07-24T07:11:46.782Z,12
2016-07-24T07:12:46.778Z,12
2016-07-24T07:13:46.811Z,8
2016-07-24T07:14:46.809Z,8
2016-07-24T07:15:46.845Z,12
2016-07-24T07:16:46.841Z,12
2016-07-24T07:17:46.846Z,12
2016-07-24T07:18:46.842Z,12
2016-07-24T07:19:46.836Z,12
2016-07-24T07:20:46.849Z,12
2016-07-24T07:21:46.874Z,12
2016-07-24T07:22:46.881Z,12
2016-07-24T07:23:46.890Z,12
2016-07-24T07:24:46.906Z,16
2016-07-24T07:25:46.910Z,16
2016-07-24T07:26:46.897Z,12
2016-07-24T07:27:46.913Z,12
2016-07-24T07:28:46.920Z,16
2016-07-24T07:29:46.957Z,12
2016-07-24T07:30:46.946Z,12
2016-07-24T07:31:46.968Z,12
2016-07-24T07:32:46.972Z,12
2016-07-24T07:33:46.960Z,12
2016-07-24T07:34:46.982Z,12
2016-07-24T07:35:46.974Z,12
2016-07-24T07:36:46.980Z,12
2016-07-24T07:37:47.005Z,12
2016-07-24T07:38:47.017Z,12
2016-07-24T07:39:47.006Z,12
2016-07-24T07:40:47.041Z,12
2016-07-24T07:41:47.057Z,12
2016-07-24T07:42:47.033Z,12
2016-07-24T07:43:47.074Z,8
2016-07-24T07:44:47.056Z,12
2016-07-24T07:45:47.065Z,12
2016-07-24T07:46:47.078Z,12
2016-07-24T07:47:47.090Z,12
2016-07-24T07:48:47.074Z,12
2016-07-24T07:49:47.116Z,12
2016-07-24T07:50:47.836Z,12
2016-07-24T07:51:47.136Z,12
2016-07-24T07:52:47.138Z,8
2016-07-24T07:53:47.166Z,8
2016-07-24T07:54:47.151Z,12
2016-07-24T07:55:47.147Z,12
2016-07-24T07:56:47.170Z,12
2016-07-24T07:57:47.179Z,12
2016-07-24T07:58:47.199Z,12
2016-07-24T07:59:47.188Z,12
2016-07-24T08:00:47.193Z,12
2016-07-24T08:01:47.199Z,12
2016-07-24T08:02:47.210Z,12
2016-07-24T08:03:47.225Z,12
2016-07-24T08:04:47.231Z,12
2016-07-24T08:05:47.250Z,12
2016-07-24T08:06:47.260Z,12
2016-07-24T08:07:47.288Z,16
2016-07-24T08:08:47.258Z,12
2016-07-24T08:09:47.274Z,12
2016-07-24T08:10:47.313Z,12
2016-07-24T08:11:47.290Z,12
2016-07-24T08:12:47.308Z,12
2016-07-24T08:13:47.314Z,12
2016-07-24T08:14:47.341Z,16
2016-07-24T08:15:47.340Z,16
2016-07-24T08:16:47.331Z,16
2016-07-24T08:17:47.349Z,16
2016-07-24T08:18:47.356Z,12
2016-07-24T08:19:47.342Z,16
2016-07-24T08:20:47.375Z,16
2016-07-24T08:21:47.387Z,16
2016-07-24T08:22:47.397Z,16
2016-07-24T08:23:47.396Z,16
2016-07-24T08:24:47.425Z,16
2016-07-24T08:25:47.416Z,16
2016-07-24T08:26:47.436Z,16
2016-07-24T08:27:47.439Z,12
2016-07-24T08:28:47.456Z,16
2016-07-24T08:29:47.469Z,16
2016-07-24T08:30:47.481Z,16
2016-07-24T08:31:47.451Z,20
2016-07-24T08:32:47.450Z,16
2016-07-24T08:33:47.566Z,20
2016-07-24T08:34:47.502Z,16
2016-07-24T08:35:47.528Z,16
2016-07-24T08:36:47.487Z,16
2016-07-24T08:37:47.525Z,20
2016-07-24T08:38:47.526Z,16
2016-07-24T08:39:47.555Z,16
2016-07-24T08:40:47.566Z,20
2016-07-24T08:41:47.559Z,20
2016-07-24T08:42:47.559Z,16
2016-07-24T08:43:47.579Z,16
2016-07-24T08:44:47.586Z,20
2016-07-24T08:45:47.588Z,16
2016-07-24T08:46:47.616Z,16
2016-07-24T08:47:47.606Z,16
2016-07-24T08:48:47.616Z,16
2016-07-24T08:49:47.619Z,20
2016-07-24T08:50:47.620Z,20
2016-07-24T08:51:47.665Z,20
2016-07-24T08:52:47.644Z,20
2016-07-24T08:53:47.669Z,20
2016-07-24T08:54:47.681Z,20
2016-07-24T08:55:47.701Z,20
2016-07-24T08:56:47.690Z,20
2016-07-24T08:57:47.732Z,16
2016-07-24T08:58:48.375Z,12
2016-07-24T08:59:47.721Z,12
2016-07-24T09:00:47.753Z,20
2016-07-24T09:01:47.714Z,16
2016-07-24T09:02:47.759Z,16
2016-07-24T09:03:47.769Z,24
2016-07-24T09:04:47.798Z,20
2016-07-24T09:05:47.770Z,20
2016-07-24T09:06:47.744Z,20
2016-07-24T09:07:47.779Z,20
2016-07-24T09:08:47.757Z,20
2016-07-24T09:09:47.809Z,20
2016-07-24T09:10:47.817Z,20
2016-07-24T09:11:47.792Z,12
2016-07-24T09:12:47.825Z,12
2016-07-24T09:13:47.809Z,12
2016-07-24T09:14:48.559Z,12
2016-07-24T09:15:47.845Z,20
2016-07-24T09:16:47.859Z,20
2016-07-24T09:17:47.852Z,16
2016-07-24T09:18:48.570Z,24
2016-07-24T09:19:47.882Z,16
2016-07-24T09:20:47.874Z,12
2016-07-24T09:21:47.891Z,12
2016-07-24T09:22:47.920Z,12
2016-07-24T09:23:47.920Z,20
2016-07-24T09:24:47.932Z,16
2016-07-24T09:25:47.942Z,16
2016-07-24T09:26:47.948Z,16
2016-07-24T09:27:47.931Z,16
2016-07-24T09:28:47.979Z,16
2016-07-24T09:29:47.996Z,24
2016-07-24T09:30:47.980Z,16
2016-07-24T09:31:47.984Z,20
2016-07-24T09:32:47.970Z,16
2016-07-24T09:33:48.004Z,20
2016-07-24T09:34:48.003Z,12
2016-07-24T09:35:48.019Z,16
2016-07-24T09:36:48.026Z,12
2016-07-24T09:37:48.041Z,24
2016-07-24T09:38:48.034Z,24
2016-07-24T09:39:48.084Z,16
2016-07-24T09:40:48.080Z,16
2016-07-24T09:41:48.054Z,24
2016-07-24T09:42:48.062Z,28
2016-07-24T09:43:48.079Z,24
2016-07-24T09:44:48.110Z,24
2016-07-24T09:45:48.092Z,20
2016-07-24T09:46:48.102Z,24
2016-07-24T09:47:48.144Z,24
2016-07-24T09:48:48.145Z,24
2016-07-24T09:49:48.152Z,24
2016-07-24T09:50:48.182Z,24
2016-07-24T09:51:48.167Z,24
2016-07-24T09:52:48.164Z,24
2016-07-24T09:53:48.213Z,24
2016-07-24T09:54:48.191Z,24
2016-07-24T09:55:48.199Z,24
2016-07-24T09:56:48.203Z,24
2016-07-24T09:57:48.208Z,24
2016-07-24T09:58:48.233Z,24
2016-07-24T09:59:48.257Z,28
2016-07-24T10:00:48.268Z,24
2016-07-24T10:01:48.273Z,28
2016-07-24T10:02:48.283Z,28
2016-07-24T10:03:48.273Z,28
2016-07-24T10:04:48.289Z,24
2016-07-24T10:05:48.291Z,24
2016-07-24T10:06:48.320Z,16
2016-07-24T10:07:48.320Z,16
2016-07-24T10:08:48.347Z,12
2016-07-24T10:09:48.341Z,12
2016-07-24T10:10:48.351Z,12
2016-07-24T10:11:48.339Z,12
2016-07-24T10:12:48.359Z,16
2016-07-24T10:13:48.363Z,12
2016-07-24T10:14:48.346Z,16
2016-07-24T10:15:48.379Z,16
2016-07-24T10:16:48.388Z,24
2016-07-24T10:17:48.392Z,16
2016-07-24T10:18:48.384Z,16
2016-07-24T10:19:48.408Z,20
2016-07-24T10:20:48.438Z,32
2016-07-24T10:21:48.444Z,28
2016-07-24T10:22:48.466Z,28
2016-07-24T10:23:48.454Z,32
2016-07-24T10:24:48.444Z,28
2016-07-24T10:25:48.443Z,32
2016-07-24T10:26:49.199Z,32
2016-07-24T10:27:48.480Z,32
2016-07-24T10:28:48.471Z,24
2016-07-24T10:29:48.483Z,24
2016-07-24T10:30:48.517Z,16
2016-07-24T10:31:48.522Z,16
2016-07-24T10:32:48.527Z,16
2016-07-24T10:33:49.243Z,16
2016-07-24T10:34:48.549Z,16
2016-07-24T10:35:48.559Z,12
2016-07-24T10:36:48.572Z,12
2016-07-24T10:37:48.575Z,12
2016-07-24T10:38:48.594Z,12
2016-07-24T10:39:48.606Z,16
2016-07-24T10:40:48.616Z,16
2016-07-24T10:41:48.626Z,28
2016-07-24T10:42:48.615Z,24
2016-07-24T10:43:48.655Z,24
2016-07-24T10:44:48.643Z,24
2016-07-24T10:45:48.642Z,28
2016-07-24T10:46:48.700Z,28
2016-07-24T10:47:48.695Z,32
2016-07-24T10:48:48.687Z,28
2016-07-24T10:49:48.677Z,28
2016-07-24T10:50:48.667Z,28
2016-07-24T10:51:48.684Z,28
2016-07-24T10:52:48.704Z,28
2016-07-24T10:53:48.718Z,28
2016-07-24T10:54:48.727Z,32
2016-07-24T10:55:49.047Z,28
2016-07-24T10:56:48.730Z,28
2016-07-24T10:57:48.769Z,32
2016-07-24T10:58:48.767Z,32
2016-07-24T10:59:48.798Z,24
2016-07-24T11:00:48.800Z,20
2016-07-24T11:01:48.772Z,16
2016-07-24T11:02:48.819Z,16
2016-07-24T11:03:48.797Z,16
2016-07-24T11:04:48.790Z,16
2016-07-24T11:05:48.860Z,16
2016-07-24T11:06:48.838Z,16
2016-07-24T11:07:48.828Z,16
2016-07-24T11:08:48.857Z,12
2016-07-24T11:09:48.863Z,16
2016-07-24T11:10:48.887Z,16
2016-07-24T11:11:48.884Z,16
2016-07-24T11:12:48.907Z,16
2016-07-24T11:13:48.913Z,16
2016-07-24T11:14:48.920Z,16
2016-07-24T11:15:48.929Z,20
2016-07-24T11:16:48.912Z,16
2016-07-24T11:17:48.939Z,20
2016-07-24T11:18:48.956Z,16
2016-07-24T11:19:48.967Z,12
2016-07-24T11:20:48.993Z,12
2016-07-24T11:21:48.997Z,12
2016-07-24T11:22:48.978Z,16
2016-07-24T11:23:49.006Z,28
2016-07-24T11:24:49.032Z,28
2016-07-24T11:25:49.066Z,28
2016-07-24T11:26:49.001Z,28
2016-07-24T11:27:49.069Z,28
2016-07-24T11:28:49.068Z,28
2016-07-24T11:29:49.040Z,28
2016-07-24T11:30:49.039Z,28
2016-07-24T11:31:49.072Z,28
2016-07-24T11:32:49.764Z,28
2016-07-24T11:33:49.086Z,28
2016-07-24T11:34:49.095Z,28
2016-07-24T11:35:49.101Z,28
2016-07-24T11:36:49.113Z,28
2016-07-24T11:37:49.129Z,24
2016-07-24T11:38:49.136Z,24
2016-07-24T11:39:49.137Z,28
2016-07-24T11:40:49.138Z,32
2016-07-24T11:41:49.187Z,28
2016-07-24T11:42:49.167Z,28
2016-07-24T11:43:49.198Z,28
2016-07-24T11:44:49.169Z,28
2016-07-24T11:45:49.188Z,16
2016-07-24T11:46:49.191Z,16
2016-07-24T11:47:49.219Z,12
2016-07-24T11:48:49.222Z,12
2016-07-24T11:49:49.217Z,12
2016-07-24T11:50:49.266Z,12
2016-07-24T11:51:49.255Z,24
2016-07-24T11:52:49.262Z,28
2016-07-24T11:53:49.287Z,24
2016-07-24T11:54:49.275Z,24
2016-07-24T11:55:49.297Z,12
2016-07-24T11:56:49.300Z,12
2016-07-24T11:57:49.320Z,12
2016-07-24T11:58:49.315Z,12
2016-07-24T11:59:49.335Z,12
2016-07-24T12:00:49.327Z,12
2016-07-24T12:01:49.384Z,16
2016-07-24T12:02:49.348Z,24
2016-07-24T12:03:49.376Z,20
2016-07-24T12:04:49.385Z,24
2016-07-24T12:05:49.376Z,16
2016-07-24T12:06:49.379Z,24
2016-07-24T12:07:49.387Z,24
2016-07-24T12:08:49.442Z,24
2016-07-24T12:09:49.444Z,20
2016-07-24T12:10:49.414Z,12
2016-07-24T12:11:49.451Z,12
2016-07-24T12:12:49.439Z,16
2016-07-24T12:13:49.458Z,20
2016-07-24T12:14:49.477Z,16
2016-07-24T12:15:49.481Z,20
2016-07-24T12:16:49.487Z,24
2016-07-24T12:17:49.501Z,24
2016-07-24T12:18:49.508Z,24
2016-07-24T12:19:49.499Z,20
2016-07-24T12:20:49.511Z,28
2016-07-24T12:21:49.516Z,16
2016-07-24T12:22:49.517Z,24
2016-07-24T12:23:49.530Z,28
2016-07-24T12:24:49.538Z,28
2016-07-24T12:25:49.629Z,24
2016-07-24T12:26:49.570Z,24
2016-07-24T12:27:49.592Z,28
2016-07-24T12:28:49.585Z,24
2016-07-24T12:29:49.611Z,28
2016-07-24T12:30:49.633Z,28
2016-07-24T12:31:49.636Z,28
2016-07-24T12:32:49.649Z,16
2016-07-24T12:33:49.620Z,16
2016-07-24T12:34:49.668Z,12
2016-07-24T12:35:49.666Z,12
2016-07-24T12:36:49.656Z,12
2016-07-24T12:37:49.702Z,12
2016-07-24T12:38:49.705Z,12
2016-07-24T12:39:49.674Z,12
2016-07-24T12:40:49.745Z,16
2016-07-24T12:41:49.719Z,12
2016-07-24T12:42:49.721Z,16
2016-07-24T12:43:50.427Z,16
2016-07-24T12:44:49.742Z,12
2016-07-24T12:45:49.761Z,16
2016-07-24T12:46:49.756Z,16
2016-07-24T12:47:49.761Z,16
2016-07-24T12:48:49.776Z,16
2016-07-24T12:49:50.521Z,12
2016-07-24T12:50:49.788Z,16
2016-07-24T12:51:49.810Z,20
2016-07-24T12:52:49.812Z,24
2016-07-24T12:53:49.822Z,24
2016-07-24T12:54:49.844Z,24
2016-07-24T12:55:49.836Z,24
2016-07-24T12:56:49.846Z,24
2016-07-24T12:57:49.873Z,20
2016-07-24T12:58:49.871Z,16
2016-07-24T12:59:49.896Z,12
2016-07-24T13:00:49.882Z,24
2016-07-24T13:01:49.890Z,24
2016-07-24T13:02:49.915Z,24
2016-07-24T13:03:49.924Z,24
2016-07-24T13:04:49.937Z,28
2016-07-24T13:05:49.939Z,28
2016-07-24T13:06:49.923Z,24
2016-07-24T13:07:49.971Z,24
2016-07-24T13:08:49.956Z,24
2016-07-24T13:09:49.996Z,24
2016-07-24T13:10:49.970Z,24
2016-07-24T13:11:50.008Z,24
2016-07-24T13:12:50.090Z,16
2016-07-24T13:13:50.005Z,16
2016-07-24T13:14:50.025Z,16
2016-07-24T13:15:50.022Z,16
2016-07-24T13:16:50.050Z,16
2016-07-24T13:17:50.050Z,24
2016-07-24T13:18:50.053Z,28
2016-07-24T13:19:50.058Z,28
2016-07-24T13:20:50.068Z,24
2016-07-24T13:21:50.115Z,28
2016-07-24T13:22:50.103Z,28
2016-07-24T13:23:50.812Z,28
2016-07-24T13:24:50.122Z,28
2016-07-24T13:25:50.142Z,28
2016-07-24T13:26:50.109Z,28
2016-07-24T13:27:50.841Z,28
2016-07-24T13:28:50.149Z,28
2016-07-24T13:29:50.199Z,24
2016-07-24T13:30:50.178Z,20
2016-07-24T13:31:50.199Z,16
2016-07-24T13:32:50.205Z,16
2016-07-24T13:33:50.209Z,16
2016-07-24T13:34:50.226Z,16
2016-07-24T13:35:50.206Z,12
2016-07-24T13:36:50.243Z,12
2016-07-24T13:37:50.249Z,12
2016-07-24T13:38:50.243Z,16
2016-07-24T13:39:50.270Z,16
2016-07-24T13:40:50.263Z,20
2016-07-24T13:41:50.262Z,24
2016-07-24T13:42:50.280Z,20
2016-07-24T13:43:50.284Z,24
2016-07-24T13:44:50.316Z,16
2016-07-24T13:45:50.306Z,16
2016-07-24T13:46:50.322Z,12
2016-07-24T13:47:50.345Z,12
2016-07-24T13:48:50.337Z,12
2016-07-24T13:49:50.355Z,12
2016-07-24T13:50:50.362Z,12
2016-07-24T13:51:50.357Z,12
2016-07-24T13:52:50.366Z,12
2016-07-24T13:53:50.496Z,16
2016-07-24T13:54:50.392Z,16
2016-07-24T13:55:50.414Z,20
2016-07-24T13:56:50.426Z,20
2016-07-24T13:57:50.426Z,20
2016-07-24T13:58:50.448Z,12
2016-07-24T13:59:50.438Z,12
2016-07-24T14:00:50.458Z,12
2016-07-24T14:01:50.661Z,12
2016-07-24T14:02:50.521Z,12
2016-07-24T14:03:50.487Z,12
2016-07-24T14:04:50.486Z,12
2016-07-24T14:05:50.517Z,12
2016-07-24T14:06:50.541Z,8
2016-07-24T14:07:50.543Z,8
2016-07-24T14:08:50.543Z,12
2016-07-24T14:09:50.583Z,20
2016-07-24T14:10:50.530Z,20
2016-07-24T14:11:50.555Z,20
2016-07-24T14:12:50.574Z,24
2016-07-24T14:13:50.587Z,20
2016-07-24T14:14:50.579Z,20
2016-07-24T14:15:50.611Z,20
2016-07-24T14:16:50.616Z,20
2016-07-24T14:17:50.641Z,20
2016-07-24T14:18:50.630Z,20
2016-07-24T14:19:50.653Z,20
2016-07-24T14:20:50.640Z,20
2016-07-24T14:21:50.652Z,20
2016-07-24T14:22:50.686Z,20
2016-07-24T14:23:50.659Z,20
2016-07-24T14:24:50.687Z,20
2016-07-24T14:25:50.692Z,20
2016-07-24T14:26:50.685Z,20
2016-07-24T14:27:50.706Z,20
2016-07-24T14:28:50.725Z,20
2016-07-24T14:29:50.717Z,20